Nissan Maru — JG5485 — position and weather

sailwx.info

Track history (hours):
 
Tides and Currents Weather Stations Pressure Air Temp Water Temp Dewpoint Dewpoint Depression Visibility Wind Speed Wind Dir Waves Ship Positions

Nissan Maru

Last reported at 2015-Jul-28 13:33 UTC. Time now 2015-Jul-30 14:13 UTC.
Position N 35°01' E 139°30'.

Length 108 m; draft 7.2 m.

Type: Cargo ship. MMSI: 431400593.

Date/timePositionNaut miles runAvg speedWind from/ knotsBaromVisibWave heightAir tempDewpointWater temp
2015-Jul-28 13:33N 35°01' E 139°30'1313.1
2015-Jul-28 12:33N 35°09' E 139°43'1212.0
2015-Jul-28 11:34N 35°20' E 139°42'1212.1
2015-Jul-28 10:33N 35°30' E 139°52'1312.7
2015-Jul-28 09:33N 35°36' E 140°06'1 1.1
2015-Jul-28 08:32N 35°35' E 140°07'0 0.0
2015-Jul-28 07:29N 35°35' E 140°07'0 0.0
2015-Jul-28 06:26N 35°35' E 140°07'0 0.0
2015-Jul-28 05:32N 35°35' E 140°07'0 0.0
2015-Jul-28 04:32N 35°35' E 140°07'0 0.0
2015-Jul-28 03:32N 35°35' E 140°07'0 0.0
2015-Jul-28 02:32N 35°35' E 140°07'0 0.0
2015-Jul-28 01:32N 35°35' E 140°07'0 0.0
2015-Jul-28 00:32N 35°35' E 140°07'0 0.0
2015-Jul-27 23:32N 35°35' E 140°07'0 0.4
2015-Jul-27 22:34N 35°35' E 140°06'5 5.3
2015-Jul-27 21:34N 35°34' E 140°00'0 0.0
2015-Jul-27 20:32N 35°34' E 140°00'0 0.1
2015-Jul-27 19:32N 35°34' E 140°00'0 0.0
2015-Jul-27 18:32N 35°34' E 140°00'0 0.0
2015-Jul-27 17:32N 35°34' E 140°00'0 0.0
2015-Jul-27 16:32N 35°34' E 140°00'0 0.0
2015-Jul-27 15:32N 35°34' E 140°00'0 0.0
2015-Jul-27 14:32N 35°34' E 140°00'0 0.0
2015-Jul-27 13:20N 35°34' E 140°00'0 0.0
2015-Jul-27 12:08N 35°34' E 140°00'0 0.0
2015-Jul-27 11:32N 35°34' E 140°00'0 0.0
2015-Jul-27 10:32N 35°34' E 140°00'0 0.0
2015-Jul-27 09:32N 35°34' E 140°00'0 0.0
2015-Jul-27 08:32N 35°34' E 140°00'6 6.0
2015-Jul-27 07:33N 35°32' E 139°54'8 8.1
2015-Jul-27 06:33N 35°29' E 139°44'0 0.0
2015-Jul-27 05:33N 35°29' E 139°44'0 0.0
2015-Jul-27 04:33N 35°29' E 139°44'0 0.0
2015-Jul-27 03:33N 35°29' E 139°44'0 0.0
2015-Jul-27 02:33N 35°29' E 139°44'0 0.0
2015-Jul-27 01:33N 35°29' E 139°44'0 0.0
2015-Jul-27 00:33N 35°29' E 139°44'0 0.0
2015-Jul-26 23:30N 35°29' E 139°44'0 0.0
2015-Jul-26 22:33N 35°29' E 139°44'0 0.0
2015-Jul-26 21:33N 35°29' E 139°44'0 0.0
2015-Jul-26 20:33N 35°29' E 139°44'0 0.0
2015-Jul-26 19:33N 35°29' E 139°44'0 0.0
2015-Jul-26 18:33N 35°29' E 139°44'0 0.0
2015-Jul-26 17:33N 35°29' E 139°44'0 0.0
2015-Jul-26 16:33N 35°29' E 139°44'0 0.0
2015-Jul-26 15:33N 35°29' E 139°44'0 0.0
2015-Jul-26 14:33N 35°29' E 139°44'0 0.0
2015-Jul-26 13:33N 35°29' E 139°44'0 0.0
2015-Jul-26 12:33N 35°29' E 139°44'0 0.0
2015-Jul-26 11:30N 35°29' E 139°44'0 0.1
2015-Jul-26 10:33N 35°29' E 139°44'2 1.8
2015-Jul-26 09:33N 35°29' E 139°46'0 0.0
2015-Jul-26 08:32N 35°29' E 139°46'0 0.1
2015-Jul-26 07:32N 35°29' E 139°46'0 0.0
2015-Jul-26 06:32N 35°29' E 139°46'0 0.1
2015-Jul-26 05:32N 35°29' E 139°46'0 0.0
2015-Jul-26 04:32N 35°29' E 139°46'0 0.0
2015-Jul-26 03:32N 35°29' E 139°46'0 0.1
2015-Jul-26 02:32N 35°29' E 139°46'0 0.0
2015-Jul-26 01:32N 35°29' E 139°46'0 0.1
2015-Jul-26 00:32N 35°29' E 139°46'0 0.1
2015-Jul-25 23:32N 35°29' E 139°46'0 0.0
2015-Jul-25 22:32N 35°29' E 139°46'0 0.0
2015-Jul-25 21:32N 35°29' E 139°46'0 0.0
2015-Jul-25 20:32N 35°29' E 139°46'0 0.0
2015-Jul-25 19:33N 35°29' E 139°46'2 1.8
2015-Jul-25 18:33N 35°29' E 139°44'0 0.0
2015-Jul-25 17:32N 35°29' E 139°44'0 0.0
2015-Jul-25 16:32N 35°29' E 139°44'0 0.0
2015-Jul-25 15:32N 35°29' E 139°44'0 0.0
2015-Jul-25 14:32N 35°29' E 139°44'0 0.0
2015-Jul-25 13:32N 35°29' E 139°44'0 0.0
2015-Jul-25 12:32N 35°29' E 139°44'0 0.0
2015-Jul-25 11:32N 35°29' E 139°44'0 0.0
2015-Jul-25 10:32N 35°29' E 139°44'0 0.0
2015-Jul-25 09:32N 35°29' E 139°44'0 0.0
2015-Jul-25 08:32N 35°29' E 139°44'0 0.0
2015-Jul-25 07:32N 35°29' E 139°44'1 0.7
2015-Jul-25 06:33N 35°29' E 139°45'7 6.8
2015-Jul-25 05:33N 35°22' E 139°44'0 0.0
2015-Jul-25 04:33N 35°22' E 139°44'0 0.0
2015-Jul-25 03:33N 35°22' E 139°44'0 0.0
2015-Jul-25 02:33N 35°22' E 139°44'0 0.0
2015-Jul-25 01:33N 35°22' E 139°44'0 0.0
2015-Jul-25 00:33N 35°22' E 139°44'0 0.0
2015-Jul-24 23:33N 35°22' E 139°44'0 0.0
2015-Jul-24 22:33N 35°22' E 139°44'0 0.0
2015-Jul-24 21:33N 35°22' E 139°44'0 0.0
2015-Jul-24 20:33N 35°22' E 139°44'0 0.0
2015-Jul-24 19:33N 35°22' E 139°44'0 0.0
2015-Jul-24 18:33N 35°22' E 139°44'0 0.0
2015-Jul-24 17:33N 35°22' E 139°44'0 0.2
2015-Jul-24 16:34N 35°22' E 139°44'1010.3
2015-Jul-24 15:33N 35°12' E 139°47'1211.9
2015-Jul-24 14:33N 35°02' E 139°38'1514.2
2015-Jul-24 13:32N 34°53' E 139°24'  
2015-Jul-21 23:33N 34°57' E 139°27'1110.9
2015-Jul-21 22:30N 35°04' E 139°38'1212.1
2015-Jul-21 21:33N 35°13' E 139°46'1111.4
2015-Jul-21 20:34N 35°24' E 139°43'5 4.9
2015-Jul-21 19:34N 35°29' E 139°44'0 0.0
2015-Jul-21 18:28N 35°29' E 139°44'0 0.0
2015-Jul-21 17:31N 35°29' E 139°44'0 0.0
2015-Jul-21 16:31N 35°29' E 139°44'0 0.0
2015-Jul-21 15:25N 35°29' E 139°44'0 0.0
2015-Jul-21 14:31N 35°29' E 139°44'0 0.0
2015-Jul-21 13:31N 35°29' E 139°44'0 0.0
2015-Jul-21 12:28N 35°29' E 139°44'0 0.0
2015-Jul-21 11:31N 35°29' E 139°44'0 0.0
2015-Jul-21 10:28N 35°29' E 139°44'0 0.0
2015-Jul-21 09:22N 35°29' E 139°44'0 0.1
2015-Jul-21 08:34N 35°29' E 139°44'5 5.2
2015-Jul-21 07:34N 35°24' E 139°45'2 2.2
2015-Jul-21 06:29N 35°22' E 139°44'0 0.1
2015-Jul-21 05:26N 35°22' E 139°44'0 0.0
2015-Jul-21 04:32N 35°22' E 139°44'0 0.1
2015-Jul-21 03:32N 35°22' E 139°44'0 0.1
2015-Jul-21 02:29N 35°22' E 139°44'0 0.1
2015-Jul-21 01:32N 35°22' E 139°44'0 0.0
2015-Jul-21 00:32N 35°22' E 139°44'0 0.0
2015-Jul-20 23:32N 35°22' E 139°44'0 0.0
2015-Jul-20 22:32N 35°22' E 139°44'0 0.0
2015-Jul-20 21:32N 35°22' E 139°44'0 0.1
2015-Jul-20 20:32N 35°22' E 139°44'0 0.0
2015-Jul-20 19:32N 35°22' E 139°44'5 5.6
2015-Jul-20 18:33N 35°17' E 139°46'1111.2
2015-Jul-20 17:33N 35°06' E 139°44'1313.0
2015-Jul-20 16:32N 34°57' E 139°31'  
Track history (hours):
 
Tides and Currents Weather Stations Pressure Air Temp Water Temp Dewpoint Dewpoint Depression Visibility Wind Speed Wind Dir Waves Ship Positions

Nissan Maru

Last reported at 2015-Jul-28 13:33 UTC. Time now 2015-Jul-30 14:13 UTC.
Position N 35°01' E 139°30'.

Length 108 m; draft 7.2 m.

Type: Cargo ship. MMSI: 431400593.

Date/timePositionNaut miles runAvg speedWind from/ knotsBaromVisibWave heightAir tempDewpointWater temp
2015-Jul-28 13:33N 35°01' E 139°30'1313.1
2015-Jul-28 12:33N 35°09' E 139°43'1212.0
2015-Jul-28 11:34N 35°20' E 139°42'1212.1
2015-Jul-28 10:33N 35°30' E 139°52'1312.7
2015-Jul-28 09:33N 35°36' E 140°06'1 1.1
2015-Jul-28 08:32N 35°35' E 140°07'0 0.0
2015-Jul-28 07:29N 35°35' E 140°07'0 0.0
2015-Jul-28 06:26N 35°35' E 140°07'0 0.0
2015-Jul-28 05:32N 35°35' E 140°07'0 0.0
2015-Jul-28 04:32N 35°35' E 140°07'0 0.0
2015-Jul-28 03:32N 35°35' E 140°07'0 0.0
2015-Jul-28 02:32N 35°35' E 140°07'0 0.0
2015-Jul-28 01:32N 35°35' E 140°07'0 0.0
2015-Jul-28 00:32N 35°35' E 140°07'0 0.0
2015-Jul-27 23:32N 35°35' E 140°07'0 0.4
2015-Jul-27 22:34N 35°35' E 140°06'5 5.3
2015-Jul-27 21:34N 35°34' E 140°00'0 0.0
2015-Jul-27 20:32N 35°34' E 140°00'0 0.1
2015-Jul-27 19:32N 35°34' E 140°00'0 0.0
2015-Jul-27 18:32N 35°34' E 140°00'0 0.0
2015-Jul-27 17:32N 35°34' E 140°00'0 0.0
2015-Jul-27 16:32N 35°34' E 140°00'0 0.0
2015-Jul-27 15:32N 35°34' E 140°00'0 0.0
2015-Jul-27 14:32N 35°34' E 140°00'0 0.0
2015-Jul-27 13:20N 35°34' E 140°00'0 0.0
2015-Jul-27 12:08N 35°34' E 140°00'0 0.0
2015-Jul-27 11:32N 35°34' E 140°00'0 0.0
2015-Jul-27 10:32N 35°34' E 140°00'0 0.0
2015-Jul-27 09:32N 35°34' E 140°00'0 0.0
2015-Jul-27 08:32N 35°34' E 140°00'6 6.0
2015-Jul-27 07:33N 35°32' E 139°54'8 8.1
2015-Jul-27 06:33N 35°29' E 139°44'0 0.0
2015-Jul-27 05:33N 35°29' E 139°44'0 0.0
2015-Jul-27 04:33N 35°29' E 139°44'0 0.0
2015-Jul-27 03:33N 35°29' E 139°44'0 0.0
2015-Jul-27 02:33N 35°29' E 139°44'0 0.0
2015-Jul-27 01:33N 35°29' E 139°44'0 0.0
2015-Jul-27 00:33N 35°29' E 139°44'0 0.0
2015-Jul-26 23:30N 35°29' E 139°44'0 0.0
2015-Jul-26 22:33N 35°29' E 139°44'0 0.0
2015-Jul-26 21:33N 35°29' E 139°44'0 0.0
2015-Jul-26 20:33N 35°29' E 139°44'0 0.0
2015-Jul-26 19:33N 35°29' E 139°44'0 0.0
2015-Jul-26 18:33N 35°29' E 139°44'0 0.0
2015-Jul-26 17:33N 35°29' E 139°44'0 0.0
2015-Jul-26 16:33N 35°29' E 139°44'0 0.0
2015-Jul-26 15:33N 35°29' E 139°44'0 0.0
2015-Jul-26 14:33N 35°29' E 139°44'0 0.0
2015-Jul-26 13:33N 35°29' E 139°44'0 0.0
2015-Jul-26 12:33N 35°29' E 139°44'0 0.0
2015-Jul-26 11:30N 35°29' E 139°44'0 0.1
2015-Jul-26 10:33N 35°29' E 139°44'2 1.8
2015-Jul-26 09:33N 35°29' E 139°46'0 0.0
2015-Jul-26 08:32N 35°29' E 139°46'0 0.1
2015-Jul-26 07:32N 35°29' E 139°46'0 0.0
2015-Jul-26 06:32N 35°29' E 139°46'0 0.1
2015-Jul-26 05:32N 35°29' E 139°46'0 0.0
2015-Jul-26 04:32N 35°29' E 139°46'0 0.0
2015-Jul-26 03:32N 35°29' E 139°46'0 0.1
2015-Jul-26 02:32N 35°29' E 139°46'0 0.0
2015-Jul-26 01:32N 35°29' E 139°46'0 0.1
2015-Jul-26 00:32N 35°29' E 139°46'0 0.1
2015-Jul-25 23:32N 35°29' E 139°46'0 0.0
2015-Jul-25 22:32N 35°29' E 139°46'0 0.0
2015-Jul-25 21:32N 35°29' E 139°46'0 0.0
2015-Jul-25 20:32N 35°29' E 139°46'0 0.0
2015-Jul-25 19:33N 35°29' E 139°46'2 1.8
2015-Jul-25 18:33N 35°29' E 139°44'0 0.0
2015-Jul-25 17:32N 35°29' E 139°44'0 0.0
2015-Jul-25 16:32N 35°29' E 139°44'0 0.0
2015-Jul-25 15:32N 35°29' E 139°44'0 0.0
2015-Jul-25 14:32N 35°29' E 139°44'0 0.0
2015-Jul-25 13:32N 35°29' E 139°44'0 0.0
2015-Jul-25 12:32N 35°29' E 139°44'0 0.0
2015-Jul-25 11:32N 35°29' E 139°44'0 0.0
2015-Jul-25 10:32N 35°29' E 139°44'0 0.0
2015-Jul-25 09:32N 35°29' E 139°44'0 0.0
2015-Jul-25 08:32N 35°29' E 139°44'0 0.0
2015-Jul-25 07:32N 35°29' E 139°44'1 0.7
2015-Jul-25 06:33N 35°29' E 139°45'7 6.8
2015-Jul-25 05:33N 35°22' E 139°44'0 0.0
2015-Jul-25 04:33N 35°22' E 139°44'0 0.0
2015-Jul-25 03:33N 35°22' E 139°44'0 0.0
2015-Jul-25 02:33N 35°22' E 139°44'0 0.0
2015-Jul-25 01:33N 35°22' E 139°44'0 0.0
2015-Jul-25 00:33N 35°22' E 139°44'0 0.0
2015-Jul-24 23:33N 35°22' E 139°44'0 0.0
2015-Jul-24 22:33N 35°22' E 139°44'0 0.0
2015-Jul-24 21:33N 35°22' E 139°44'0 0.0
2015-Jul-24 20:33N 35°22' E 139°44'0 0.0
2015-Jul-24 19:33N 35°22' E 139°44'0 0.0
2015-Jul-24 18:33N 35°22' E 139°44'0 0.0
2015-Jul-24 17:33N 35°22' E 139°44'0 0.2
2015-Jul-24 16:34N 35°22' E 139°44'1010.3
2015-Jul-24 15:33N 35°12' E 139°47'1211.9
2015-Jul-24 14:33N 35°02' E 139°38'1514.2
2015-Jul-24 13:32N 34°53' E 139°24'  
2015-Jul-21 23:33N 34°57' E 139°27'1110.9
2015-Jul-21 22:30N 35°04' E 139°38'1212.1
2015-Jul-21 21:33N 35°13' E 139°46'1111.4
2015-Jul-21 20:34N 35°24' E 139°43'5 4.9
2015-Jul-21 19:34N 35°29' E 139°44'0 0.0
2015-Jul-21 18:28N 35°29' E 139°44'0 0.0
2015-Jul-21 17:31N 35°29' E 139°44'0 0.0
2015-Jul-21 16:31N 35°29' E 139°44'0 0.0
2015-Jul-21 15:25N 35°29' E 139°44'0 0.0
2015-Jul-21 14:31N 35°29' E 139°44'0 0.0
2015-Jul-21 13:31N 35°29' E 139°44'0 0.0
2015-Jul-21 12:28N 35°29' E 139°44'0 0.0
2015-Jul-21 11:31N 35°29' E 139°44'0 0.0
2015-Jul-21 10:28N 35°29' E 139°44'0 0.0
2015-Jul-21 09:22N 35°29' E 139°44'0 0.1
2015-Jul-21 08:34N 35°29' E 139°44'5 5.2
2015-Jul-21 07:34N 35°24' E 139°45'2 2.2
2015-Jul-21 06:29N 35°22' E 139°44'0 0.1
2015-Jul-21 05:26N 35°22' E 139°44'0 0.0
2015-Jul-21 04:32N 35°22' E 139°44'0 0.1
2015-Jul-21 03:32N 35°22' E 139°44'0 0.1
2015-Jul-21 02:29N 35°22' E 139°44'0 0.1
2015-Jul-21 01:32N 35°22' E 139°44'0 0.0
2015-Jul-21 00:32N 35°22' E 139°44'0 0.0
2015-Jul-20 23:32N 35°22' E 139°44'0 0.0
2015-Jul-20 22:32N 35°22' E 139°44'0 0.0
2015-Jul-20 21:32N 35°22' E 139°44'0 0.1
2015-Jul-20 20:32N 35°22' E 139°44'0 0.0
2015-Jul-20 19:32N 35°22' E 139°44'5 5.6
2015-Jul-20 18:33N 35°17' E 139°46'1111.2
2015-Jul-20 17:33N 35°06' E 139°44'1313.0
2015-Jul-20 16:32N 34°57' E 139°31'  

Dump ship's entire track history